Time;durP1;ratioP1;P1;durP2;ratioP2;P2;SDS_P1;SDS_P2;PMS_P1;PMS_P2;Temp;Humidity;BMP_temperature;BMP_pressure;BME280_temperature;BME280_humidity;BME280_pressure;Samples;Min_cycle;Max_cycle;Signal;HPM_P1;HPM_P2
2021/06/05 00:00:49;;;;;;;17.60;10.48;;;461.70;1920.00;;;;;;4921110;29;20505;-79
2021/06/05 00:03:16;;;;;;;27.55;12.82;;;461.60;1920.00;;;;;;4921153;29;20028;-78
2021/06/05 00:05:56;;;;;;;20.70;13.50;;;461.60;1920.00;;;;;;4918006;29;20024;-81
2021/06/05 00:08:22;;;;;;;22.63;12.10;;;461.70;1894.40;;;;;;4909641;29;20363;-81
2021/06/05 00:10:55;;;;;;;24.60;13.82;;;461.50;1920.00;;;;;;4937165;29;20034;-79
2021/06/05 00:13:44;;;;;;;23.42;14.20;;;461.40;1945.60;;;;;;4937930;29;20181;-82
2021/06/05 00:16:16;;;;;;;21.38;13.07;;;461.40;1945.60;;;;;;4936971;29;20130;-79
2021/06/05 00:18:47;;;;;;;20.30;12.32;;;461.40;1920.00;;;;;;4937930;29;20090;-79
2021/06/05 00:21:13;;;;;;;26.42;12.15;;;461.40;1945.60;;;;;;4937476;29;20066;-81
2021/06/05 00:23:39;;;;;;;29.08;12.60;;;461.30;1920.00;;;;;;4917822;29;20052;-79
2021/06/05 00:26:06;;;;;;;16.48;9.57;;;461.40;1920.00;;;;;;4935464;29;20035;-82
2021/06/05 00:28:32;;;;;;;11.45;8.30;;;461.50;1894.40;;;;;;4920620;29;20114;-79
2021/06/05 00:30:59;;;;;;;16.25;10.35;;;461.50;1920.00;;;;;;4921101;29;20038;-80
2021/06/05 00:33:25;;;;;;;12.80;9.07;;;461.50;1945.60;;;;;;4920215;29;20028;-81
2021/06/05 00:35:51;;;;;;;15.02;9.40;;;461.50;1945.60;;;;;;4935638;29;20035;-80
2021/06/05 00:38:18;;;;;;;18.20;10.77;;;461.40;1920.00;;;;;;4920113;29;20023;-79
2021/06/05 00:40:47;;;;;;;11.45;9.07;;;461.50;1920.00;;;;;;4920475;29;20524;-83
2021/06/05 00:43:15;;;;;;;13.70;9.27;;;461.50;1920.00;;;;;;4936987;29;20051;-80
2021/06/05 00:45:43;;;;;;;11.82;9.63;;;461.40;1945.60;;;;;;4920151;29;20052;-80
2021/06/05 00:48:09;;;;;;;13.93;8.77;;;461.00;1996.80;;;;;;4919984;29;20032;-80
2021/06/05 00:50:36;;;;;;;15.95;10.55;;;461.00;2022.40;;;;;;4919989;29;20043;-80
2021/06/05 00:53:03;;;;;;;18.85;10.35;;;461.00;1996.80;;;;;;4920360;29;20024;-80
2021/06/05 00:55:31;;;;;;;17.73;11.13;;;460.80;1996.80;;;;;;4919926;29;20028;-80
2021/06/05 00:57:57;;;;;;;14.93;9.25;;;436.00;1996.80;;;;;;4937294;29;20028;-80
2021/06/05 01:00:36;;;;;;;17.73;9.65;;;436.10;1996.80;;;;;;4937185;29;20031;-80
2021/06/05 01:03:03;;;;;;;16.13;8.90;;;460.80;2022.40;;;;;;4936971;29;20055;-80
2021/06/05 01:05:31;;;;;;;15.02;9.10;;;460.80;1996.80;;;;;;4936885;29;20042;-81
2021/06/05 01:08:06;;;;;;;11.02;8.20;;;460.90;1996.80;;;;;;4919556;29;20047;-79
2021/06/05 01:10:33;;;;;;;13.20;7.80;;;460.90;1996.80;;;;;;4919836;29;20035;-80
2021/06/05 01:13:17;;;;;;;16.45;8.85;;;460.80;1996.80;;;;;;4919194;29;20110;-82
2021/06/05 01:15:46;;;;;;;15.40;9.18;;;460.90;2022.40;;;;;;4919595;29;20134;-80
2021/06/05 01:18:27;;;;;;;14.30;8.60;;;460.90;1996.80;;;;;;4919603;29;20075;-79
2021/06/05 01:21:02;;;;;;;10.63;8.10;;;461.00;2022.40;;;;;;4919499;29;20028;-81
2021/06/05 01:23:30;;;;;;;13.77;7.95;;;461.00;2022.40;;;;;;4923705;29;20477;-81
2021/06/05 01:26:09;;;;;;;13.15;8.77;;;461.10;2048.00;;;;;;4919434;29;20079;-80
2021/06/05 01:29:09;;;;;;;13.88;9.00;;;460.80;2048.00;;;;;;4936498;29;20110;-80
2021/06/05 01:31:43;;;;;;;12.68;8.32;;;460.80;2073.60;;;;;;4919203;29;20024;-82
2021/06/05 01:34:10;;;;;;;17.80;10.57;;;460.80;2099.20;;;;;;4936436;29;20071;-80
2021/06/05 01:36:42;;;;;;;16.35;9.30;;;436.10;2073.60;;;;;;4935914;29;20039;-82
2021/06/05 01:39:11;;;;;;;24.13;10.65;;;435.80;2099.20;;;;;;4919427;29;20098;-81
2021/06/05 01:41:40;;;;;;;19.08;10.45;;;435.60;2099.20;;;;;;4919152;29;20115;-80
2021/06/05 01:44:07;;;;;;;15.85;9.85;;;435.50;2150.40;;;;;;4919021;29;20119;-80
2021/06/05 01:46:37;;;;;;;13.75;9.45;;;435.30;2124.80;;;;;;4915425;29;20054;-81
2021/06/05 01:49:02;;;;;;;18.00;10.27;;;435.40;2124.80;;;;;;4918951;29;20110;-82
2021/06/05 01:51:29;;;;;;;16.60;9.07;;;435.50;2150.40;;;;;;4919028;29;20123;-80
2021/06/05 01:54:05;;;;;;;14.02;9.25;;;435.50;2124.80;;;;;;4918781;29;20051;-79
2021/06/05 01:57:04;;;;;;;19.85;10.43;;;435.40;2150.40;;;;;;4935917;29;20031;-79
2021/06/05 01:59:30;;;;;;;24.70;10.90;;;435.20;2176.00;;;;;;4877416;29;20156;-80
2021/06/05 02:01:57;;;;;;;21.63;12.27;;;410.30;2150.40;;;;;;4861640;29;20033;-82
2021/06/05 02:04:23;;;;;;;22.48;12.07;;;410.40;2150.40;;;;;;4877489;29;20044;-79
2021/06/05 02:06:50;;;;;;;30.38;12.38;;;435.20;2150.40;;;;;;4861515;29;20128;-81
2021/06/05 02:09:18;;;;;;;32.95;14.63;;;410.20;2176.00;;;;;;4861600;29;20045;-79
2021/06/05 02:11:56;;;;;;;27.25;12.00;;;410.30;2176.00;;;;;;4861561;29;20025;-80
2021/06/05 02:15:03;;;;;;;31.60;12.18;;;410.00;2150.40;;;;;;4861359;29;20033;-80
2021/06/05 02:17:32;;;;;;;20.38;10.90;;;409.90;2124.80;;;;;;4822016;29;20054;-79
2021/06/05 02:20:03;;;;;;;26.17;12.05;;;409.90;2124.80;;;;;;4821951;29;20031;-79
2021/06/05 02:22:31;;;;;;;18.45;11.65;;;409.70;2176.00;;;;;;4821766;29;20045;-80
2021/06/05 02:24:59;;;;;;;20.88;12.05;;;384.90;2150.40;;;;;;4827884;29;20034;-79
2021/06/05 02:27:28;;;;;;;23.13;11.38;;;384.80;2201.60;;;;;;4817415;29;20014;-79
2021/06/05 02:29:56;;;;;;;18.20;11.38;;;409.60;2176.00;;;;;;4828643;29;20094;-79
2021/06/05 02:32:27;;;;;;;22.30;12.48;;;384.90;2150.40;;;;;;4822001;29;20042;-80
2021/06/05 02:34:55;;;;;;;21.05;12.25;;;384.80;2150.40;;;;;;4810581;29;20042;-81
2021/06/05 02:37:25;;;;;;;19.88;11.45;;;384.80;2150.40;;;;;;4842912;29;20042;-80
2021/06/05 02:40:00;;;;;;;19.13;10.75;;;384.90;2124.80;;;;;;4842750;29;20116;-81
2021/06/05 02:42:27;;;;;;;18.95;11.45;;;384.60;2150.40;;;;;;4858053;29;20082;-80
2021/06/05 02:44:55;;;;;;;21.45;11.20;;;384.40;2150.40;;;;;;4857822;29;20041;-79
2021/06/05 02:47:23;;;;;;;22.13;11.82;;;384.40;2099.20;;;;;;4842564;29;20148;-80
2021/06/05 02:49:50;;;;;;;20.05;11.15;;;359.30;2124.80;;;;;;4842721;29;20036;-79
2021/06/05 02:52:31;;;;;;;19.02;11.07;;;359.10;2150.40;;;;;;4905044;29;20051;-78
2021/06/05 02:55:12;;;;;;;17.10;11.18;;;359.20;2099.20;;;;;;4917925;29;20467;-80
2021/06/05 02:57:38;;;;;;;19.35;10.23;;;359.20;2099.20;;;;;;4918062;29;20031;-80
2021/06/05 03:00:10;;;;;;;27.85;11.30;;;359.30;2124.80;;;;;;4917862;29;20024;-80
2021/06/05 03:02:36;;;;;;;28.30;11.45;;;359.20;2124.80;;;;;;4918007;29;20039;-79
2021/06/05 03:05:04;;;;;;;20.42;12.07;;;359.20;2150.40;;;;;;4917695;29;20373;-79
2021/06/05 03:07:29;;;;;;;16.38;10.43;;;384.00;2150.40;;;;;;4917206;29;20028;-80
2021/06/05 03:09:55;;;;;;;18.45;10.25;;;384.10;2124.80;;;;;;4918164;29;20470;-79
2021/06/05 03:12:21;;;;;;;14.35;9.88;;;384.20;2150.40;;;;;;4933931;29;20051;-79
2021/06/05 03:14:46;;;;;;;15.23;10.43;;;384.00;2176.00;;;;;;4917832;29;20511;-79
2021/06/05 03:17:12;;;;;;;15.48;9.15;;;359.20;2201.60;;;;;;4917797;29;20032;-80
2021/06/05 03:19:38;;;;;;;17.92;9.38;;;384.00;2227.20;;;;;;4934817;29;20459;-79
2021/06/05 03:22:05;;;;;;;14.27;9.73;;;384.10;2227.20;;;;;;4917312;29;20050;-81
2021/06/05 03:24:31;;;;;;;24.42;10.90;;;359.20;2252.80;;;;;;4915412;29;20075;-80
2021/06/05 03:27:00;;;;;;;18.38;9.27;;;359.10;2227.20;;;;;;4917589;29;20034;-81
2021/06/05 03:29:26;;;;;;;16.05;9.43;;;359.20;2227.20;;;;;;4933730;29;20020;-80
2021/06/05 03:31:52;;;;;;;14.65;8.52;;;359.20;2252.80;;;;;;4934502;29;20062;-80
2021/06/05 03:34:18;;;;;;;13.10;8.77;;;384.10;2201.60;;;;;;4917721;29;20466;-80
2021/06/05 03:36:43;;;;;;;14.82;8.27;;;384.10;2201.60;;;;;;4917509;29;20556;-82
2021/06/05 03:39:09;;;;;;;17.23;9.48;;;384.00;2227.20;;;;;;4917497;29;20147;-81
2021/06/05 03:41:37;;;;;;;16.05;10.52;;;384.00;2227.20;;;;;;4917708;29;20051;-80
2021/06/05 03:44:03;;;;;;;17.02;10.20;;;384.00;2227.20;;;;;;4917210;29;20198;-80
2021/06/05 03:46:29;;;;;;;16.52;10.10;;;384.10;2227.20;;;;;;4917519;29;20055;-80
2021/06/05 03:48:55;;;;;;;22.25;9.70;;;384.10;2227.20;;;;;;4917201;29;20160;-80
2021/06/05 03:51:21;;;;;;;19.55;10.20;;;384.30;2201.60;;;;;;4917856;29;20460;-80
2021/06/05 03:53:47;;;;;;;14.48;9.18;;;384.50;2176.00;;;;;;4933191;29;20027;-79
2021/06/05 03:56:13;;;;;;;16.13;8.82;;;384.60;2176.00;;;;;;4916765;29;20036;-79
2021/06/05 03:58:42;;;;;;;16.40;9.50;;;384.70;2150.40;;;;;;4917424;29;20397;-82
2021/06/05 04:01:15;;;;;;;12.35;7.93;;;384.80;2150.40;;;;;;4933072;29;20027;-79
2021/06/05 04:03:41;;;;;;;12.07;8.38;;;409.60;2176.00;;;;;;4917473;29;20024;-79
2021/06/05 04:06:08;;;;;;;12.90;8.73;;;409.60;2150.40;;;;;;4915603;29;20031;-79
2021/06/05 04:08:34;;;;;;;11.18;8.23;;;409.70;2150.40;;;;;;4917362;29;20031;-82
2021/06/05 04:11:00;;;;;;;15.70;8.43;;;409.90;2124.80;;;;;;4918197;29;20442;-79
2021/06/05 04:13:26;;;;;;;12.18;8.32;;;410.00;2073.60;;;;;;4936913;29;20040;-79
2021/06/05 04:15:51;;;;;;;11.32;7.65;;;410.30;2073.60;;;;;;4937676;29;20067;-80
2021/06/05 04:18:30;;;;;;;11.05;8.15;;;410.40;2048.00;;;;;;4937296;29;20492;-79
2021/06/05 04:20:57;;;;;;;19.45;8.98;;;435.20;2048.00;;;;;;4920812;29;20040;-79
2021/06/05 04:23:24;;;;;;;16.60;10.18;;;435.20;2048.00;;;;;;4920490;29;20047;-82
2021/06/05 04:25:50;;;;;;;21.02;10.18;;;435.30;2048.00;;;;;;4921005;29;20031;-79
2021/06/05 04:28:19;;;;;;;22.35;9.52;;;435.40;2048.00;;;;;;4920639;29;20024;-79
2021/06/05 04:30:45;;;;;;;16.15;8.68;;;435.50;2048.00;;;;;;4937498;29;20058;-79
2021/06/05 04:33:17;;;;;;;18.27;9.43;;;435.40;2022.40;;;;;;4920351;29;20048;-78
2021/06/05 04:35:43;;;;;;;20.50;9.30;;;435.80;2022.40;;;;;;4920289;29;20031;-82
2021/06/05 04:38:10;;;;;;;20.85;9.25;;;436.10;1996.80;;;;;;4936336;29;20034;-82
2021/06/05 04:40:37;;;;;;;19.00;8.82;;;436.10;1996.80;;;;;;4937206;29;20055;-80
2021/06/05 04:43:03;;;;;;;21.50;8.90;;;460.80;1996.80;;;;;;4937525;29;20051;-82
2021/06/05 04:45:29;;;;;;;19.08;9.07;;;461.00;1996.80;;;;;;4936972;29;20058;-80
2021/06/05 04:47:55;;;;;;;16.55;8.68;;;461.10;1971.20;;;;;;4937665;29;20485;-80
2021/06/05 04:50:24;;;;;;;14.85;8.18;;;461.10;1945.60;;;;;;4937119;29;20111;-78
2021/06/05 04:52:50;;;;;;;16.38;9.10;;;461.10;1971.20;;;;;;4937090;29;20034;-77
2021/06/05 04:55:16;;;;;;;18.65;9.40;;;461.00;1996.80;;;;;;4919915;29;20110;-78
2021/06/05 04:57:42;;;;;;;17.80;9.45;;;461.10;1971.20;;;;;;4937204;29;20024;-77
2021/06/05 05:00:12;;;;;;;18.92;10.43;;;461.00;2022.40;;;;;;4919962;29;20494;-78
2021/06/05 05:02:38;;;;;;;17.10;10.02;;;460.90;2022.40;;;;;;4936695;29;20031;-79
2021/06/05 05:05:05;;;;;;;18.50;10.88;;;461.10;2022.40;;;;;;4920105;29;20028;-81
2021/06/05 05:07:31;;;;;;;16.48;10.27;;;461.20;2048.00;;;;;;4936548;29;20024;-80
2021/06/05 05:09:57;;;;;;;15.25;10.23;;;461.20;2022.40;;;;;;4936942;29;20027;-80
2021/06/05 05:12:23;;;;;;;21.10;10.35;;;461.40;2073.60;;;;;;4919752;29;20027;-76
2021/06/05 05:14:49;;;;;;;14.73;10.55;;;461.40;2022.40;;;;;;4936579;29;20489;-78
2021/06/05 05:17:14;;;;;;;16.77;10.60;;;461.50;2022.40;;;;;;4919578;29;20486;-77
2021/06/05 05:19:40;;;;;;;14.07;8.88;;;461.60;1996.80;;;;;;4919278;29;20083;-77
2021/06/05 05:22:07;;;;;;;13.95;8.77;;;461.70;1894.40;;;;;;4934895;29;20078;-78
2021/06/05 05:24:33;;;;;;;16.60;9.77;;;486.50;1894.40;;;;;;4919003;29;20469;-77
2021/06/05 05:26:58;;;;;;;17.27;11.25;;;486.60;1894.40;;;;;;4936560;29;20024;-77
2021/06/05 05:29:25;;;;;;;16.88;9.63;;;486.70;1920.00;;;;;;4936100;29;20030;-76
2021/06/05 05:31:51;;;;;;;13.32;8.70;;;486.70;1894.40;;;;;;4936314;29;20027;-77
2021/06/05 05:34:16;;;;;;;13.25;8.60;;;486.90;1843.20;;;;;;4918147;29;20032;-82
2021/06/05 05:36:43;;;;;;;13.68;8.43;;;487.00;1817.60;;;;;;4935663;29;20039;-78
2021/06/05 05:39:16;;;;;;;15.57;7.88;;;487.00;1792.00;;;;;;4919051;29;20035;-77
2021/06/05 05:41:43;;;;;;;12.05;9.00;;;487.10;1817.60;;;;;;4933156;29;20035;-82
2021/06/05 05:44:09;;;;;;;15.57;8.48;;;487.20;1868.80;;;;;;4936291;29;20098;-81
2021/06/05 05:46:36;;;;;;;14.32;8.70;;;487.20;1894.40;;;;;;4918986;29;20497;-79
2021/06/05 05:49:02;;;;;;;13.73;8.75;;;487.30;1894.40;;;;;;4919107;29;20047;-81
2021/06/05 05:51:28;;;;;;;14.60;9.70;;;487.10;1894.40;;;;;;4919348;29;20039;-80
2021/06/05 05:53:54;;;;;;;10.90;7.20;;;487.30;1894.40;;;;;;4918999;29;20039;-83
2021/06/05 05:56:24;;;;;;;16.73;7.57;;;512.00;1843.20;;;;;;4936241;29;20048;-79
2021/06/05 05:58:52;;;;;;;11.30;7.07;;;512.20;1817.60;;;;;;4919189;29;20119;-78
2021/06/05 06:01:20;;;;;;;21.67;7.60;;;512.20;1766.40;;;;;;4934983;29;20028;-80
2021/06/05 06:03:51;;;;;;;22.45;8.43;;;512.30;1792.00;;;;;;4924029;29;20083;-81
2021/06/05 06:06:18;;;;;;;11.75;6.30;;;512.40;1817.60;;;;;;4939563;29;20039;-81
2021/06/05 06:08:44;;;;;;;13.50;6.43;;;512.50;1766.40;;;;;;4923279;29;20031;-80
2021/06/05 06:11:12;;;;;;;12.70;6.30;;;512.70;1740.80;;;;;;4917979;29;20030;-79
2021/06/05 06:13:38;;;;;;;9.77;5.55;;;512.80;1689.60;;;;;;4933827;29;20061;-79
2021/06/05 06:16:07;;;;;;;11.23;5.97;;;512.80;1689.60;;;;;;4935046;29;20063;-80
2021/06/05 06:18:37;;;;;;;8.80;5.47;;;512.90;1740.80;;;;;;4917435;29;20027;-78
2021/06/05 06:21:06;;;;;;;10.38;6.10;;;537.60;1715.20;;;;;;4935523;29;20072;-76
2021/06/05 06:23:35;;;;;;;13.30;6.30;;;537.70;1740.80;;;;;;4935359;29;20016;-81
2021/06/05 06:26:03;;;;;;;10.68;6.15;;;537.80;1766.40;;;;;;4918366;29;20036;-78
2021/06/05 06:28:32;;;;;;;7.25;6.30;;;537.90;1715.20;;;;;;4918277;29;20020;-78
2021/06/05 06:30:59;;;;;;;18.27;6.97;;;538.00;1715.20;;;;;;4935035;29;20030;-77
2021/06/05 06:33:25;;;;;;;8.52;5.75;;;538.10;1715.20;;;;;;4917502;29;20070;-77
2021/06/05 06:35:53;;;;;;;10.10;5.85;;;538.20;1689.60;;;;;;4934226;29;20126;-77
2021/06/05 06:38:27;;;;;;;18.38;5.57;;;538.30;1612.80;;;;;;4932054;29;20026;-77
2021/06/05 06:40:53;;;;;;;10.70;5.85;;;538.40;1638.40;;;;;;4917645;29;20394;-77
2021/06/05 06:43:27;;;;;;;8.55;5.50;;;538.50;1638.40;;;;;;4917838;29;20039;-76
2021/06/05 06:45:54;;;;;;;7.63;5.43;;;563.20;1689.60;;;;;;4935174;29;20055;-77
2021/06/05 06:48:21;;;;;;;10.20;5.72;;;563.20;1638.40;;;;;;4934942;29;20028;-76
2021/06/05 06:50:48;;;;;;;9.32;5.20;;;563.40;1638.40;;;;;;4917920;29;20066;-79
2021/06/05 06:53:14;;;;;;;11.00;5.63;;;563.50;1612.80;;;;;;4934594;29;20030;-76
2021/06/05 06:55:39;;;;;;;8.48;5.13;;;563.70;1638.40;;;;;;4934876;29;20370;-81
2021/06/05 06:58:05;;;;;;;9.43;5.07;;;563.80;1612.80;;;;;;4934634;29;20030;-76
2021/06/05 07:00:37;;;;;;;7.60;4.32;;;563.90;1587.20;;;;;;4934863;29;20024;-75
2021/06/05 07:03:03;;;;;;;11.05;4.82;;;564.00;1484.80;;;;;;4935102;29;20095;-76
2021/06/05 07:05:29;;;;;;;11.60;5.63;;;564.10;1510.40;;;;;;4935046;29;20016;-75
2021/06/05 07:08:09;;;;;;;32.65;7.40;;;564.10;1484.80;;;;;;4934907;29;20111;-75
2021/06/05 07:10:35;;;;;;;117.35;12.73;;;588.80;1459.20;;;;;;4934777;29;20035;-75
2021/06/05 07:13:01;;;;;;;6.95;4.25;;;588.90;1459.20;;;;;;4934660;29;20045;-78
2021/06/05 07:15:27;;;;;;;7.25;4.68;;;589.10;1382.40;;;;;;4934554;29;20082;-77
2021/06/05 07:17:53;;;;;;;10.48;5.20;;;589.20;1408.00;;;;;;4934790;29;20032;-77
2021/06/05 07:20:19;;;;;;;14.52;6.07;;;589.30;1408.00;;;;;;4934941;29;20028;-76
2021/06/05 07:22:44;;;;;;;9.90;6.15;;;589.40;1382.40;;;;;;4934898;29;20039;-77
2021/06/05 07:25:11;;;;;;;12.02;5.85;;;589.50;1280.00;;;;;;4917315;29;20453;-78
2021/06/05 07:27:37;;;;;;;14.32;5.15;;;589.70;1228.80;;;;;;4934380;29;20074;-77
2021/06/05 07:30:05;;;;;;;7.65;4.50;;;589.70;1280.00;;;;;;4934544;29;20055;-76
2021/06/05 07:32:31;;;;;;;7.03;4.07;;;614.40;1305.60;;;;;;4934405;29;20030;-77
2021/06/05 07:34:56;;;;;;;6.50;4.35;;;614.50;1228.80;;;;;;4917071;29;20047;-76
2021/06/05 07:37:23;;;;;;;8.18;4.35;;;614.60;1203.20;;;;;;4934385;29;20035;-77
2021/06/05 07:39:48;;;;;;;9.45;4.80;;;614.80;1280.00;;;;;;4934300;29;20031;-77
2021/06/05 07:42:15;;;;;;;9.55;4.47;;;614.90;1254.40;;;;;;4934292;29;20019;-78
2021/06/05 07:44:41;;;;;;;8.57;4.65;;;614.90;1280.00;;;;;;4935132;29;20099;-77
2021/06/05 07:47:07;;;;;;;8.65;4.40;;;615.20;1228.80;;;;;;4937567;29;20478;-78
2021/06/05 07:49:37;;;;;;;10.93;4.03;;;615.20;1177.60;;;;;;4937690;29;20016;-77
2021/06/05 07:52:06;;;;;;;11.23;4.72;;;615.20;1203.20;;;;;;4937940;29;20487;-79
2021/06/05 07:54:32;;;;;;;12.98;4.35;;;615.20;1228.80;;;;;;4924493;29;20023;-78
2021/06/05 07:56:58;;;;;;;10.02;4.53;;;615.30;1203.20;;;;;;4920086;29;20122;-78
2021/06/05 07:59:26;;;;;;;6.25;4.30;;;640.00;1177.60;;;;;;4917131;29;20035;-80
2021/06/05 08:01:52;;;;;;;9.18;4.10;;;640.10;1203.20;;;;;;4934692;29;20027;-81
2021/06/05 08:04:19;;;;;;;7.55;4.07;;;640.20;1177.60;;;;;;4937310;29;20106;-77
2021/06/05 08:06:46;;;;;;;6.55;3.90;;;640.30;1152.00;;;;;;4937321;29;20486;-77
2021/06/05 08:09:12;;;;;;;5.65;4.00;;;640.40;1203.20;;;;;;4937332;29;20024;-82
2021/06/05 08:11:38;;;;;;;9.32;4.10;;;640.60;1152.00;;;;;;4920451;29;20039;-79
2021/06/05 08:14:06;;;;;;;9.52;4.10;;;640.50;1126.40;;;;;;4936636;29;20028;-79
2021/06/05 08:16:36;;;;;;;11.73;4.18;;;640.60;1075.20;;;;;;4937440;29;20042;-77
2021/06/05 08:19:08;;;;;;;8.60;3.58;;;640.60;1126.40;;;;;;4936509;29;20114;-77
2021/06/05 08:21:34;;;;;;;14.73;3.92;;;640.50;1075.20;;;;;;4937304;29;20089;-78
2021/06/05 08:24:00;;;;;;;6.22;3.75;;;640.60;1049.60;;;;;;4937149;29;20084;-78
2021/06/05 08:26:26;;;;;;;5.25;3.20;;;640.60;1024.00;;;;;;4937301;29;20107;-78
2021/06/05 08:28:52;;;;;;;5.60;3.40;;;640.60;998.40;;;;;;4937429;29;20431;-77
2021/06/05 08:31:19;;;;;;;7.72;3.33;;;640.60;972.80;;;;;;4902735;29;20032;-77
2021/06/05 08:33:46;;;;;;;5.53;3.33;;;640.70;972.80;;;;;;4918790;29;20060;-78
2021/06/05 08:36:13;;;;;;;4.75;3.55;;;640.90;998.40;;;;;;4932686;29;20079;-80
2021/06/05 08:38:40;;;;;;;9.25;3.97;;;640.70;998.40;;;;;;4935927;29;20024;-77
2021/06/05 08:41:18;;;;;;;4.93;3.30;;;665.60;1100.80;;;;;;4918664;29;20097;-77
2021/06/05 08:43:55;;;;;;;8.13;3.80;;;665.70;998.40;;;;;;4935545;29;20051;-78
2021/06/05 08:46:25;;;;;;;5.28;3.38;;;665.70;972.80;;;;;;4936673;29;20059;-76
2021/06/05 08:48:52;;;;;;;8.73;2.92;;;665.60;972.80;;;;;;4936567;29;20032;-77
2021/06/05 08:51:27;;;;;;;7.18;3.50;;;665.70;947.20;;;;;;4935804;29;20024;-78
2021/06/05 08:54:02;;;;;;;5.55;3.22;;;665.70;896.00;;;;;;4936426;29;20020;-80
2021/06/05 08:56:32;;;;;;;7.05;3.00;;;665.70;896.00;;;;;;4936168;29;20032;-81
2021/06/05 08:59:01;;;;;;;6.15;2.65;;;665.80;921.60;;;;;;4936251;29;20482;-82
2021/06/05 09:01:37;;;;;;;4.47;3.30;;;665.90;921.60;;;;;;4936200;29;20565;-78
2021/06/05 09:04:14;;;;;;;6.93;4.32;;;665.90;896.00;;;;;;4936469;29;20047;-82
2021/06/05 09:06:54;;;;;;;5.03;3.20;;;665.90;896.00;;;;;;4933984;29;20060;-78
2021/06/05 09:09:28;;;;;;;7.13;3.17;;;666.20;947.20;;;;;;4933891;29;20508;-80
2021/06/05 09:11:53;;;;;;;6.75;2.90;;;666.00;921.60;;;;;;4936279;29;20028;-77
2021/06/05 09:14:20;;;;;;;7.38;2.80;;;666.20;921.60;;;;;;4936395;29;20023;-78
2021/06/05 09:16:48;;;;;;;8.77;3.17;;;666.40;947.20;;;;;;4935957;29;20047;-80
2021/06/05 09:19:29;;;;;;;4.18;3.10;;;666.50;870.40;;;;;;4936129;29;20475;-80
2021/06/05 09:22:20;;;;;;;5.30;3.05;;;666.50;896.00;;;;;;4935509;29;20032;-80
2021/06/05 09:24:52;;;;;;;11.30;3.20;;;666.30;896.00;;;;;;4935587;29;20023;-80
2021/06/05 09:27:20;;;;;;;5.15;3.08;;;666.50;896.00;;;;;;4934091;29;20493;-77
2021/06/05 09:30:00;;;;;;;6.68;3.22;;;691.20;870.40;;;;;;4936612;29;20032;-78
2021/06/05 09:32:32;;;;;;;7.05;4.65;;;691.60;972.80;;;;;;4935466;29;20024;-81
2021/06/05 09:35:22;;;;;;;7.43;3.70;;;691.80;921.60;;;;;;4935305;29;20111;-79
2021/06/05 09:37:54;;;;;;;11.82;3.58;;;692.10;972.80;;;;;;4918281;29;20497;-77
2021/06/05 09:40:20;;;;;;;5.85;3.90;;;692.10;870.40;;;;;;4935427;29;20027;-78
2021/06/05 09:42:54;;;;;;;7.65;3.35;;;717.00;921.60;;;;;;4933180;29;20032;-79
2021/06/05 09:45:36;;;;;;;6.55;3.25;;;717.10;921.60;;;;;;4933920;29;20564;-77
2021/06/05 09:48:20;;;;;;;6.53;3.67;;;717.20;844.80;;;;;;4933596;29;20056;-78
2021/06/05 09:50:50;;;;;;;11.00;3.20;;;717.20;896.00;;;;;;4934231;29;20526;-77
2021/06/05 09:53:31;;;;;;;6.20;3.42;;;717.40;870.40;;;;;;4936035;29;20031;-79
2021/06/05 09:56:01;;;;;;;6.78;3.30;;;717.50;819.20;;;;;;4935390;29;20174;-77
2021/06/05 09:58:34;;;;;;;11.05;3.38;;;717.50;896.00;;;;;;4917500;29;20028;-79
2021/06/05 10:01:14;;;;;;;9.15;3.00;;;717.60;870.40;;;;;;4900299;29;20039;-77
2021/06/05 10:03:40;;;;;;;6.25;3.00;;;717.10;896.00;;;;;;4917129;29;20063;-78
2021/06/05 10:06:40;;;;;;;8.32;3.60;;;717.20;896.00;;;;;;4901139;29;20386;-76
2021/06/05 10:09:26;;;;;;;8.73;3.00;;;717.20;844.80;;;;;;4917530;29;20485;-77
2021/06/05 10:12:07;;;;;;;8.95;3.10;;;717.60;819.20;;;;;;4907080;29;20032;-80
2021/06/05 10:14:36;;;;;;;5.68;2.70;;;717.40;819.20;;;;;;4934113;29;20047;-78
2021/06/05 10:17:08;;;;;;;6.90;3.15;;;717.70;870.40;;;;;;4934969;29;20040;-79
2021/06/05 10:19:41;;;;;;;8.30;3.65;;;742.50;870.40;;;;;;4932318;29;20047;-79
2021/06/05 10:22:07;;;;;;;5.63;2.88;;;742.60;793.60;;;;;;4913605;29;20457;-78
2021/06/05 10:24:41;;;;;;;12.57;3.38;;;742.80;793.60;;;;;;4922196;29;20027;-79
2021/06/05 10:27:16;;;;;;;8.30;3.05;;;742.80;793.60;;;;;;4915858;29;20032;-78
2021/06/05 10:29:46;;;;;;;5.30;2.95;;;742.60;819.20;;;;;;4931211;29;20024;-78
2021/06/05 10:32:21;;;;;;;4.38;2.80;;;742.80;793.60;;;;;;4918122;29;20114;-81
2021/06/05 10:35:03;;;;;;;5.90;3.65;;;742.50;793.60;;;;;;4918060;29;20042;-82
2021/06/05 10:37:32;;;;;;;7.50;2.55;;;742.70;844.80;;;;;;4933779;29;20138;-79
2021/06/05 10:39:58;;;;;;;5.57;2.92;;;742.60;793.60;;;;;;4917488;29;20043;-79
2021/06/05 10:42:26;;;;;;;5.43;3.00;;;717.70;793.60;;;;;;4917893;29;20553;-78
2021/06/05 10:44:53;;;;;;;7.75;2.70;;;742.60;793.60;;;;;;4934553;29;20394;-82
2021/06/05 10:47:33;;;;;;;7.65;3.08;;;742.80;793.60;;;;;;4917968;29;20031;-80
2021/06/05 10:50:11;;;;;;;10.68;3.35;;;742.60;921.60;;;;;;4935165;29;20114;-78
2021/06/05 10:52:39;;;;;;;7.82;2.90;;;742.60;844.80;;;;;;4934702;29;20019;-79
2021/06/05 10:55:08;;;;;;;8.15;3.00;;;742.90;844.80;;;;;;4934925;29;20524;-80
2021/06/05 10:58:08;;;;;;;7.85;3.20;;;743.00;793.60;;;;;;4934533;29;20069;-79
2021/06/05 11:00:59;;;;;;;7.05;3.03;;;743.10;793.60;;;;;;4915792;29;20055;-78
2021/06/05 11:03:28;;;;;;;5.63;3.17;;;743.20;793.60;;;;;;4924429;29;20019;-81
2021/06/05 11:06:12;;;;;;;5.10;3.17;;;743.00;819.20;;;;;;4934999;29;20019;-77
2021/06/05 11:08:48;;;;;;;5.47;2.80;;;743.10;793.60;;;;;;4934729;29;20051;-78
2021/06/05 11:11:19;;;;;;;10.45;2.95;;;743.10;819.20;;;;;;4916988;29;20035;-78
2021/06/05 11:13:45;;;;;;;7.07;2.88;;;768.00;819.20;;;;;;4933687;29;20409;-77
2021/06/05 11:16:14;;;;;;;7.10;3.13;;;743.00;793.60;;;;;;4933554;29;20039;-77
2021/06/05 11:18:44;;;;;;;5.30;2.95;;;743.30;793.60;;;;;;4935158;29;20024;-76
2021/06/05 11:21:22;;;;;;;6.40;3.40;;;768.10;793.60;;;;;;4935897;29;20474;-76
2021/06/05 11:23:59;;;;;;;6.97;3.30;;;743.20;844.80;;;;;;4938038;29;20370;-76
2021/06/05 11:26:34;;;;;;;5.35;3.42;;;743.00;819.20;;;;;;4938194;29;20019;-77
2021/06/05 11:29:26;;;;;;;8.07;3.10;;;743.00;819.20;;;;;;4937987;29;20039;-78
2021/06/05 11:32:16;;;;;;;7.75;3.03;;;743.10;844.80;;;;;;4938340;29;20509;-76
2021/06/05 11:34:42;;;;;;;4.80;3.08;;;768.10;819.20;;;;;;4938214;29;20130;-82
2021/06/05 11:37:13;;;;;;;6.35;2.80;;;768.10;793.60;;;;;;4938411;29;20475;-80
2021/06/05 11:39:46;;;;;;;5.43;2.55;;;743.30;819.20;;;;;;4938236;29;20026;-77
2021/06/05 11:42:23;;;;;;;5.10;3.17;;;743.10;793.60;;;;;;4937097;29;20024;-77
2021/06/05 11:44:59;;;;;;;9.60;3.30;;;743.30;793.60;;;;;;4937413;29;20040;-75
2021/06/05 11:47:24;;;;;;;5.38;3.00;;;768.10;793.60;;;;;;4937875;29;20106;-78
2021/06/05 11:50:10;;;;;;;6.03;2.80;;;743.30;819.20;;;;;;4937792;29;20114;-79
2021/06/05 11:52:53;;;;;;;7.03;3.45;;;743.30;793.60;;;;;;4936080;29;20024;-79
2021/06/05 11:55:39;;;;;;;8.93;3.33;;;743.30;819.20;;;;;;4935437;29;20035;-77
2021/06/05 11:58:20;;;;;;;4.75;3.08;;;743.30;819.20;;;;;;4934810;29;20032;-76
2021/06/05 12:01:12;;;;;;;8.15;2.63;;;743.10;793.60;;;;;;4934992;29;20067;-77
2021/06/05 12:03:56;;;;;;;7.70;3.40;;;743.10;793.60;;;;;;4926394;29;20036;-78
2021/06/05 12:06:27;;;;;;;4.40;2.78;;;743.30;768.00;;;;;;4936511;29;20392;-79
2021/06/05 12:09:19;;;;;;;7.88;3.42;;;768.00;819.20;;;;;;4921040;29;20027;-81
2021/06/05 12:12:05;;;;;;;8.65;2.95;;;743.20;819.20;;;;;;4928550;29;20379;-78
2021/06/05 12:17:15;;;;;;;4.85;2.97;;;742.90;793.60;;;;;;4937725;29;20043;-80
2021/06/05 12:19:40;;;;;;;8.02;3.30;;;743.10;793.60;;;;;;4934973;29;20043;-81
2021/06/05 12:22:33;;;;;;;4.20;3.13;;;743.10;819.20;;;;;;4920453;29;20462;-81
2021/06/05 12:24:59;;;;;;;5.20;2.88;;;743.10;819.20;;;;;;4933763;29;20114;-79
2021/06/05 12:27:33;;;;;;;4.78;2.88;;;743.30;793.60;;;;;;4935675;29;20031;-77
2021/06/05 12:30:29;;;;;;;10.15;3.17;;;768.00;819.20;;;;;;4936459;29;20027;-77
2021/06/05 12:33:05;;;;;;;6.22;3.63;;;768.20;793.60;;;;;;4933214;29;20860;-78